Weedon, Canada
Current Conditions -  °F | °C
As of 1:00 PM on Friday 28 Nov 2014 (Local Time) from CYSC Reporting Station
Light Snow Light Snow  
Wind Chill: 11°   Ceiling: 1500
Heat Index: 23°   Visibility: 9mi
Dew Point: 18°   Wind: 13mph
Humidity: 80%   Direction: 280°W
Pressure: 30.01"   Gusts: NA
Location:  45.7°N, 71.45°W
Report Text: CYSC 281800Z AUTO 28011KT 9SM -SN BKN015 OVC033 M05/M08 A3001 RMK SLP177
Loading
Personal Weather Stations






























Interactive Weather Map New forecast layout! Learn more

10-Day Weather Forecast

Advertisements
Track Severe Weather on mobile